sensor_id;sensor_type;location;lat;lon;timestamp;P1;durP1;ratioP1;P2;durP2;ratioP2
1446;SDS011;717;51.522;7.266;2023-01-10T00:01:58;9.23;;;5.00;;
1446;SDS011;717;51.522;7.266;2023-01-10T00:04:27;10.83;;;5.50;;
1446;SDS011;717;51.522;7.266;2023-01-10T00:06:56;15.57;;;6.20;;
1446;SDS011;717;51.522;7.266;2023-01-10T00:09:25;12.67;;;5.30;;
1446;SDS011;717;51.522;7.266;2023-01-10T00:11:53;11.73;;;5.77;;
1446;SDS011;717;51.522;7.266;2023-01-10T00:14:37;13.47;;;5.77;;
1446;SDS011;717;51.522;7.266;2023-01-10T00:17:06;10.13;;;5.13;;
1446;SDS011;717;51.522;7.266;2023-01-10T00:19:34;9.17;;;5.17;;
1446;SDS011;717;51.522;7.266;2023-01-10T00:22:03;9.27;;;5.20;;
1446;SDS011;717;51.522;7.266;2023-01-10T00:24:43;9.20;;;4.60;;
1446;SDS011;717;51.522;7.266;2023-01-10T00:27:12;11.10;;;4.60;;
1446;SDS011;717;51.522;7.266;2023-01-10T00:29:47;8.30;;;4.40;;
1446;SDS011;717;51.522;7.266;2023-01-10T00:32:18;12.70;;;4.97;;
1446;SDS011;717;51.522;7.266;2023-01-10T00:34:46;9.90;;;4.45;;
1446;SDS011;717;51.522;7.266;2023-01-10T00:37:15;9.37;;;4.57;;
1446;SDS011;717;51.522;7.266;2023-01-10T00:39:44;7.33;;;4.07;;
1446;SDS011;717;51.522;7.266;2023-01-10T00:42:12;5.10;;;3.43;;
1446;SDS011;717;51.522;7.266;2023-01-10T00:44:56;7.17;;;4.33;;
1446;SDS011;717;51.522;7.266;2023-01-10T00:47:24;8.17;;;4.03;;
1446;SDS011;717;51.522;7.266;2023-01-10T00:49:53;12.10;;;5.27;;
1446;SDS011;717;51.522;7.266;2023-01-10T00:52:21;8.50;;;3.97;;
1446;SDS011;717;51.522;7.266;2023-01-10T00:54:50;9.97;;;4.30;;
1446;SDS011;717;51.522;7.266;2023-01-10T00:57:19;9.38;;;4.45;;
1446;SDS011;717;51.522;7.266;2023-01-10T00:59:47;8.83;;;4.63;;
1446;SDS011;717;51.522;7.266;2023-01-10T01:02:18;7.43;;;4.10;;
1446;SDS011;717;51.522;7.266;2023-01-10T01:04:47;7.67;;;3.93;;
1446;SDS011;717;51.522;7.266;2023-01-10T01:07:15;7.90;;;4.60;;
1446;SDS011;717;51.522;7.266;2023-01-10T01:09:44;7.60;;;4.30;;
1446;SDS011;717;51.522;7.266;2023-01-10T01:12:25;9.75;;;4.88;;
1446;SDS011;717;51.522;7.266;2023-01-10T01:14:54;9.38;;;5.18;;
1446;SDS011;717;51.522;7.266;2023-01-10T01:17:25;8.40;;;4.33;;
1446;SDS011;717;51.522;7.266;2023-01-10T01:19:54;8.30;;;4.17;;
1446;SDS011;717;51.522;7.266;2023-01-10T01:22:22;9.70;;;3.93;;
1446;SDS011;717;51.522;7.266;2023-01-10T01:24:51;8.07;;;4.77;;
1446;SDS011;717;51.522;7.266;2023-01-10T01:27:20;9.68;;;4.90;;
1446;SDS011;717;51.522;7.266;2023-01-10T01:29:48;9.73;;;3.90;;
1446;SDS011;717;51.522;7.266;2023-01-10T01:32:17;12.10;;;4.22;;
1446;SDS011;717;51.522;7.266;2023-01-10T01:34:48;11.83;;;4.60;;
1446;SDS011;717;51.522;7.266;2023-01-10T01:37:17;9.27;;;4.40;;
1446;SDS011;717;51.522;7.266;2023-01-10T01:39:45;8.30;;;3.93;;
1446;SDS011;717;51.522;7.266;2023-01-10T01:42:19;8.37;;;3.63;;
1446;SDS011;717;51.522;7.266;2023-01-10T01:47:50;8.03;;;3.23;;
1446;SDS011;717;51.522;7.266;2023-01-10T01:50:25;7.17;;;3.93;;
1446;SDS011;717;51.522;7.266;2023-01-10T01:52:59;9.57;;;3.47;;
1446;SDS011;717;51.522;7.266;2023-01-10T01:55:29;7.50;;;3.70;;
1446;SDS011;717;51.522;7.266;2023-01-10T01:58:02;6.37;;;3.67;;
1446;SDS011;717;51.522;7.266;2023-01-10T02:00:35;10.97;;;3.67;;
1446;SDS011;717;51.522;7.266;2023-01-10T02:03:04;6.93;;;3.53;;
1446;SDS011;717;51.522;7.266;2023-01-10T02:05:36;11.63;;;3.70;;
1446;SDS011;717;51.522;7.266;2023-01-10T02:08:07;9.20;;;3.10;;
1446;SDS011;717;51.522;7.266;2023-01-10T02:10:37;10.50;;;3.77;;
1446;SDS011;717;51.522;7.266;2023-01-10T02:13:13;8.63;;;3.80;;
1446;SDS011;717;51.522;7.266;2023-01-10T02:15:44;10.43;;;3.93;;
1446;SDS011;717;51.522;7.266;2023-01-10T02:18:13;12.63;;;4.03;;
1446;SDS011;717;51.522;7.266;2023-01-10T02:20:47;11.03;;;3.17;;
1446;SDS011;717;51.522;7.266;2023-01-10T02:23:33;8.30;;;3.63;;
1446;SDS011;717;51.522;7.266;2023-01-10T02:26:31;8.37;;;3.67;;
1446;SDS011;717;51.522;7.266;2023-01-10T02:29:36;7.73;;;3.37;;
1446;SDS011;717;51.522;7.266;2023-01-10T02:32:40;8.83;;;3.13;;
1446;SDS011;717;51.522;7.266;2023-01-10T02:35:15;9.57;;;2.90;;
1446;SDS011;717;51.522;7.266;2023-01-10T02:37:58;11.13;;;3.20;;
1446;SDS011;717;51.522;7.266;2023-01-10T02:40:38;9.97;;;3.90;;
1446;SDS011;717;51.522;7.266;2023-01-10T02:43:14;8.25;;;3.10;;
1446;SDS011;717;51.522;7.266;2023-01-10T02:45:46;9.23;;;3.30;;
1446;SDS011;717;51.522;7.266;2023-01-10T02:48:21;5.97;;;2.50;;
1446;SDS011;717;51.522;7.266;2023-01-10T02:50:52;9.38;;;2.75;;
1446;SDS011;717;51.522;7.266;2023-01-10T02:53:24;8.07;;;2.80;;
1446;SDS011;717;51.522;7.266;2023-01-10T02:59:17;7.23;;;2.80;;
1446;SDS011;717;51.522;7.266;2023-01-10T03:01:59;10.27;;;2.63;;
1446;SDS011;717;51.522;7.266;2023-01-10T03:04:40;13.20;;;2.83;;
1446;SDS011;717;51.522;7.266;2023-01-10T03:10:29;9.65;;;3.03;;
1446;SDS011;717;51.522;7.266;2023-01-10T03:13:04;10.93;;;2.50;;
1446;SDS011;717;51.522;7.266;2023-01-10T03:15:39;10.73;;;2.80;;
1446;SDS011;717;51.522;7.266;2023-01-10T03:18:11;9.07;;;2.40;;
1446;SDS011;717;51.522;7.266;2023-01-10T03:20:47;7.00;;;2.63;;
1446;SDS011;717;51.522;7.266;2023-01-10T03:23:18;9.20;;;2.80;;
1446;SDS011;717;51.522;7.266;2023-01-10T03:25:49;11.63;;;3.13;;
1446;SDS011;717;51.522;7.266;2023-01-10T03:28:20;9.90;;;3.00;;
1446;SDS011;717;51.522;7.266;2023-01-10T03:30:53;5.90;;;2.67;;
1446;SDS011;717;51.522;7.266;2023-01-10T03:33:26;9.23;;;2.67;;
1446;SDS011;717;51.522;7.266;2023-01-10T03:36:02;11.10;;;2.80;;
1446;SDS011;717;51.522;7.266;2023-01-10T03:38:41;7.77;;;2.20;;
1446;SDS011;717;51.522;7.266;2023-01-10T03:41:16;7.27;;;2.23;;
1446;SDS011;717;51.522;7.266;2023-01-10T03:43:52;6.80;;;2.27;;
1446;SDS011;717;51.522;7.266;2023-01-10T03:46:43;7.17;;;2.60;;
1446;SDS011;717;51.522;7.266;2023-01-10T03:49:16;6.57;;;2.10;;
1446;SDS011;717;51.522;7.266;2023-01-10T03:51:49;10.83;;;2.40;;
1446;SDS011;717;51.522;7.266;2023-01-10T03:54:19;8.77;;;2.07;;
1446;SDS011;717;51.522;7.266;2023-01-10T03:56:49;5.53;;;1.70;;
1446;SDS011;717;51.522;7.266;2023-01-10T03:59:19;10.80;;;2.50;;
1446;SDS011;717;51.522;7.266;2023-01-10T04:01:51;8.30;;;2.50;;
1446;SDS011;717;51.522;7.266;2023-01-10T04:04:20;5.63;;;1.80;;
1446;SDS011;717;51.522;7.266;2023-01-10T04:06:52;5.77;;;2.47;;
1446;SDS011;717;51.522;7.266;2023-01-10T04:09:20;6.17;;;2.03;;
1446;SDS011;717;51.522;7.266;2023-01-10T04:11:49;8.33;;;2.20;;
1446;SDS011;717;51.522;7.266;2023-01-10T04:14:18;7.63;;;2.17;;
1446;SDS011;717;51.522;7.266;2023-01-10T04:16:46;12.50;;;2.80;;
1446;SDS011;717;51.522;7.266;2023-01-10T04:19:15;9.67;;;4.50;;
1446;SDS011;717;51.522;7.266;2023-01-10T04:21:43;10.07;;;2.73;;
1446;SDS011;717;51.522;7.266;2023-01-10T04:24:15;9.27;;;2.70;;
1446;SDS011;717;51.522;7.266;2023-01-10T04:26:43;7.70;;;2.37;;
1446;SDS011;717;51.522;7.266;2023-01-10T04:29:12;9.13;;;2.73;;
1446;SDS011;717;51.522;7.266;2023-01-10T04:31:40;7.77;;;2.30;;
1446;SDS011;717;51.522;7.266;2023-01-10T04:34:10;5.40;;;2.20;;
1446;SDS011;717;51.522;7.266;2023-01-10T04:36:38;8.23;;;2.30;;
1446;SDS011;717;51.522;7.266;2023-01-10T04:39:07;8.50;;;2.43;;
1446;SDS011;717;51.522;7.266;2023-01-10T04:41:39;8.33;;;2.40;;
1446;SDS011;717;51.522;7.266;2023-01-10T04:44:07;8.67;;;2.43;;
1446;SDS011;717;51.522;7.266;2023-01-10T04:46:37;7.73;;;2.37;;
1446;SDS011;717;51.522;7.266;2023-01-10T04:49:05;5.87;;;2.20;;
1446;SDS011;717;51.522;7.266;2023-01-10T04:51:34;11.87;;;2.60;;
1446;SDS011;717;51.522;7.266;2023-01-10T04:54:02;7.45;;;2.10;;
1446;SDS011;717;51.522;7.266;2023-01-10T04:56:31;8.63;;;1.93;;
1446;SDS011;717;51.522;7.266;2023-01-10T04:59:02;10.40;;;2.13;;
1446;SDS011;717;51.522;7.266;2023-01-10T05:01:32;5.87;;;1.83;;
1446;SDS011;717;51.522;7.266;2023-01-10T05:04:03;4.37;;;1.70;;
1446;SDS011;717;51.522;7.266;2023-01-10T05:06:33;7.37;;;1.83;;
1446;SDS011;717;51.522;7.266;2023-01-10T05:09:04;6.93;;;2.00;;
1446;SDS011;717;51.522;7.266;2023-01-10T05:11:32;7.97;;;1.80;;
1446;SDS011;717;51.522;7.266;2023-01-10T05:14:04;6.18;;;2.17;;
1446;SDS011;717;51.522;7.266;2023-01-10T05:16:32;7.43;;;1.90;;
1446;SDS011;717;51.522;7.266;2023-01-10T05:19:01;10.13;;;2.30;;
1446;SDS011;717;51.522;7.266;2023-01-10T05:21:29;9.40;;;2.33;;
1446;SDS011;717;51.522;7.266;2023-01-10T05:23:58;6.80;;;1.70;;
1446;SDS011;717;51.522;7.266;2023-01-10T05:26:27;7.37;;;2.07;;
1446;SDS011;717;51.522;7.266;2023-01-10T05:28:56;6.50;;;1.90;;
1446;SDS011;717;51.522;7.266;2023-01-10T05:31:27;6.40;;;2.03;;
1446;SDS011;717;51.522;7.266;2023-01-10T05:33:55;8.77;;;2.00;;
1446;SDS011;717;51.522;7.266;2023-01-10T05:36:24;6.43;;;1.70;;
1446;SDS011;717;51.522;7.266;2023-01-10T05:38:52;6.93;;;2.00;;
1446;SDS011;717;51.522;7.266;2023-01-10T05:41:21;5.43;;;1.97;;
1446;SDS011;717;51.522;7.266;2023-01-10T05:43:50;5.93;;;2.17;;
1446;SDS011;717;51.522;7.266;2023-01-10T05:46:19;7.17;;;1.80;;
1446;SDS011;717;51.522;7.266;2023-01-10T05:48:51;8.40;;;2.00;;
1446;SDS011;717;51.522;7.266;2023-01-10T05:51:19;6.00;;;1.67;;
1446;SDS011;717;51.522;7.266;2023-01-10T05:53:48;8.13;;;1.63;;
1446;SDS011;717;51.522;7.266;2023-01-10T05:56:16;7.03;;;1.70;;
1446;SDS011;717;51.522;7.266;2023-01-10T05:58:45;5.60;;;2.03;;
1446;SDS011;717;51.522;7.266;2023-01-10T06:01:14;9.77;;;2.40;;
1446;SDS011;717;51.522;7.266;2023-01-10T06:03:43;10.90;;;1.90;;
1446;SDS011;717;51.522;7.266;2023-01-10T06:06:14;9.23;;;1.80;;
1446;SDS011;717;51.522;7.266;2023-01-10T06:08:42;4.53;;;1.67;;
1446;SDS011;717;51.522;7.266;2023-01-10T06:11:11;10.93;;;2.33;;
1446;SDS011;717;51.522;7.266;2023-01-10T06:13:39;6.53;;;1.60;;
1446;SDS011;717;51.522;7.266;2023-01-10T06:16:08;6.37;;;2.20;;
1446;SDS011;717;51.522;7.266;2023-01-10T06:18:37;8.10;;;2.00;;
1446;SDS011;717;51.522;7.266;2023-01-10T06:21:05;8.83;;;2.40;;
1446;SDS011;717;51.522;7.266;2023-01-10T06:23:36;8.47;;;1.67;;
1446;SDS011;717;51.522;7.266;2023-01-10T06:26:06;8.30;;;2.20;;
1446;SDS011;717;51.522;7.266;2023-01-10T06:28:34;8.30;;;1.87;;
1446;SDS011;717;51.522;7.266;2023-01-10T06:31:05;10.37;;;2.33;;
1446;SDS011;717;51.522;7.266;2023-01-10T06:33:33;8.97;;;2.33;;
1446;SDS011;717;51.522;7.266;2023-01-10T06:36:05;11.27;;;2.27;;
1446;SDS011;717;51.522;7.266;2023-01-10T06:38:37;7.97;;;1.70;;
1446;SDS011;717;51.522;7.266;2023-01-10T06:41:06;11.50;;;2.07;;
1446;SDS011;717;51.522;7.266;2023-01-10T06:43:39;10.50;;;2.00;;
1446;SDS011;717;51.522;7.266;2023-01-10T06:46:09;10.17;;;2.17;;
1446;SDS011;717;51.522;7.266;2023-01-10T06:48:40;7.90;;;2.30;;
1446;SDS011;717;51.522;7.266;2023-01-10T06:51:10;9.40;;;2.07;;
1446;SDS011;717;51.522;7.266;2023-01-10T06:53:42;9.47;;;1.80;;
1446;SDS011;717;51.522;7.266;2023-01-10T06:56:11;9.60;;;2.00;;
1446;SDS011;717;51.522;7.266;2023-01-10T06:58:39;7.80;;;1.93;;
1446;SDS011;717;51.522;7.266;2023-01-10T07:01:12;11.83;;;2.50;;
1446;SDS011;717;51.522;7.266;2023-01-10T07:03:42;6.03;;;1.67;;
1446;SDS011;717;51.522;7.266;2023-01-10T07:06:11;5.30;;;1.87;;
1446;SDS011;717;51.522;7.266;2023-01-10T07:08:43;10.33;;;2.07;;
1446;SDS011;717;51.522;7.266;2023-01-10T07:11:13;12.83;;;2.47;;
1446;SDS011;717;51.522;7.266;2023-01-10T07:13:42;10.90;;;3.23;;
1446;SDS011;717;51.522;7.266;2023-01-10T07:16:11;11.43;;;2.53;;
1446;SDS011;717;51.522;7.266;2023-01-10T07:18:42;13.07;;;3.20;;
1446;SDS011;717;51.522;7.266;2023-01-10T07:21:10;12.27;;;3.60;;
1446;SDS011;717;51.522;7.266;2023-01-10T07:23:43;9.47;;;2.80;;
1446;SDS011;717;51.522;7.266;2023-01-10T07:26:14;15.07;;;3.00;;
1446;SDS011;717;51.522;7.266;2023-01-10T07:28:44;8.93;;;2.70;;
1446;SDS011;717;51.522;7.266;2023-01-10T07:31:15;10.37;;;2.77;;
1446;SDS011;717;51.522;7.266;2023-01-10T07:33:44;11.07;;;2.57;;
1446;SDS011;717;51.522;7.266;2023-01-10T07:36:13;10.90;;;2.30;;
1446;SDS011;717;51.522;7.266;2023-01-10T07:38:44;10.87;;;2.17;;
1446;SDS011;717;51.522;7.266;2023-01-10T07:41:13;11.97;;;2.70;;
1446;SDS011;717;51.522;7.266;2023-01-10T07:43:42;15.73;;;2.70;;
1446;SDS011;717;51.522;7.266;2023-01-10T07:46:10;9.00;;;2.43;;
1446;SDS011;717;51.522;7.266;2023-01-10T07:48:39;12.43;;;2.90;;
1446;SDS011;717;51.522;7.266;2023-01-10T07:51:10;11.13;;;2.47;;
1446;SDS011;717;51.522;7.266;2023-01-10T07:53:39;9.37;;;2.93;;
1446;SDS011;717;51.522;7.266;2023-01-10T07:56:10;11.73;;;3.70;;
1446;SDS011;717;51.522;7.266;2023-01-10T07:58:39;13.37;;;2.67;;
1446;SDS011;717;51.522;7.266;2023-01-10T08:01:07;12.67;;;2.53;;
1446;SDS011;717;51.522;7.266;2023-01-10T08:03:36;10.37;;;2.97;;
1446;SDS011;717;51.522;7.266;2023-01-10T08:06:05;14.43;;;3.07;;
1446;SDS011;717;51.522;7.266;2023-01-10T08:08:37;12.20;;;3.13;;
1446;SDS011;717;51.522;7.266;2023-01-10T08:11:06;14.23;;;3.00;;
1446;SDS011;717;51.522;7.266;2023-01-10T08:13:37;11.83;;;3.47;;
1446;SDS011;717;51.522;7.266;2023-01-10T08:16:06;13.00;;;2.63;;
1446;SDS011;717;51.522;7.266;2023-01-10T08:18:35;15.97;;;3.50;;
1446;SDS011;717;51.522;7.266;2023-01-10T08:21:07;17.73;;;2.80;;
1446;SDS011;717;51.522;7.266;2023-01-10T08:23:36;12.20;;;2.70;;
1446;SDS011;717;51.522;7.266;2023-01-10T08:26:04;7.93;;;2.60;;
1446;SDS011;717;51.522;7.266;2023-01-10T08:28:33;14.03;;;3.53;;
1446;SDS011;717;51.522;7.266;2023-01-10T08:31:05;9.67;;;3.30;;
1446;SDS011;717;51.522;7.266;2023-01-10T08:33:35;10.50;;;3.00;;
1446;SDS011;717;51.522;7.266;2023-01-10T08:36:05;10.70;;;2.43;;
1446;SDS011;717;51.522;7.266;2023-01-10T08:38:42;15.83;;;2.83;;
1446;SDS011;717;51.522;7.266;2023-01-10T08:41:12;14.03;;;3.27;;
1446;SDS011;717;51.522;7.266;2023-01-10T08:43:43;12.07;;;2.97;;
1446;SDS011;717;51.522;7.266;2023-01-10T08:46:12;11.43;;;2.93;;
1446;SDS011;717;51.522;7.266;2023-01-10T08:48:40;13.10;;;2.83;;
1446;SDS011;717;51.522;7.266;2023-01-10T08:51:09;18.67;;;2.97;;
1446;SDS011;717;51.522;7.266;2023-01-10T08:53:38;15.87;;;3.23;;
1446;SDS011;717;51.522;7.266;2023-01-10T08:56:07;12.33;;;2.53;;
1446;SDS011;717;51.522;7.266;2023-01-10T08:58:36;17.23;;;2.93;;
1446;SDS011;717;51.522;7.266;2023-01-10T09:01:07;17.30;;;2.60;;
1446;SDS011;717;51.522;7.266;2023-01-10T09:03:38;12.90;;;3.20;;
1446;SDS011;717;51.522;7.266;2023-01-10T09:06:07;15.00;;;3.10;;
1446;SDS011;717;51.522;7.266;2023-01-10T09:08:36;14.23;;;2.70;;
1446;SDS011;717;51.522;7.266;2023-01-10T09:11:05;15.53;;;2.83;;
1446;SDS011;717;51.522;7.266;2023-01-10T09:13:33;14.77;;;2.67;;
1446;SDS011;717;51.522;7.266;2023-01-10T09:16:07;13.47;;;2.27;;
1446;SDS011;717;51.522;7.266;2023-01-10T09:18:36;12.67;;;2.93;;
1446;SDS011;717;51.522;7.266;2023-01-10T09:21:05;9.77;;;2.20;;
1446;SDS011;717;51.522;7.266;2023-01-10T09:23:34;11.43;;;2.40;;
1446;SDS011;717;51.522;7.266;2023-01-10T09:26:04;8.30;;;2.00;;
1446;SDS011;717;51.522;7.266;2023-01-10T09:28:33;12.83;;;2.40;;
1446;SDS011;717;51.522;7.266;2023-01-10T09:31:01;8.98;;;2.17;;
1446;SDS011;717;51.522;7.266;2023-01-10T09:33:34;11.13;;;2.35;;
1446;SDS011;717;51.522;7.266;2023-01-10T09:36:03;18.27;;;2.00;;
1446;SDS011;717;51.522;7.266;2023-01-10T09:38:33;10.57;;;2.50;;
1446;SDS011;717;51.522;7.266;2023-01-10T09:41:06;12.87;;;3.03;;
1446;SDS011;717;51.522;7.266;2023-01-10T09:43:50;13.80;;;2.55;;
1446;SDS011;717;51.522;7.266;2023-01-10T09:46:29;16.13;;;2.67;;
1446;SDS011;717;51.522;7.266;2023-01-10T09:49:16;13.57;;;2.73;;
1446;SDS011;717;51.522;7.266;2023-01-10T09:51:52;11.70;;;2.42;;
1446;SDS011;717;51.522;7.266;2023-01-10T09:54:24;13.60;;;2.60;;
1446;SDS011;717;51.522;7.266;2023-01-10T09:56:55;13.07;;;2.63;;
1446;SDS011;717;51.522;7.266;2023-01-10T09:59:34;11.50;;;2.53;;
1446;SDS011;717;51.522;7.266;2023-01-10T10:02:06;10.43;;;2.60;;
1446;SDS011;717;51.522;7.266;2023-01-10T10:04:52;9.40;;;2.28;;
1446;SDS011;717;51.522;7.266;2023-01-10T10:07:35;11.37;;;2.23;;
1446;SDS011;717;51.522;7.266;2023-01-10T10:10:04;16.67;;;2.50;;
1446;SDS011;717;51.522;7.266;2023-01-10T10:12:36;16.27;;;2.63;;
1446;SDS011;717;51.522;7.266;2023-01-10T10:15:16;12.20;;;3.10;;
1446;SDS011;717;51.522;7.266;2023-01-10T10:17:49;12.80;;;3.00;;
1446;SDS011;717;51.522;7.266;2023-01-10T10:20:41;14.03;;;2.60;;
1446;SDS011;717;51.522;7.266;2023-01-10T10:23:22;12.95;;;2.78;;
1446;SDS011;717;51.522;7.266;2023-01-10T10:26:12;16.53;;;2.80;;
1446;SDS011;717;51.522;7.266;2023-01-10T10:28:51;14.60;;;3.97;;
1446;SDS011;717;51.522;7.266;2023-01-10T10:31:42;15.70;;;2.45;;
1446;SDS011;717;51.522;7.266;2023-01-10T10:34:27;10.87;;;2.87;;
1446;SDS011;717;51.522;7.266;2023-01-10T10:37:04;13.48;;;2.42;;
1446;SDS011;717;51.522;7.266;2023-01-10T10:39:41;17.23;;;2.90;;
1446;SDS011;717;51.522;7.266;2023-01-10T10:42:14;9.23;;;2.17;;
1446;SDS011;717;51.522;7.266;2023-01-10T10:44:46;11.50;;;2.40;;
1446;SDS011;717;51.522;7.266;2023-01-10T10:47:21;10.70;;;2.70;;
1446;SDS011;717;51.522;7.266;2023-01-10T10:49:51;12.73;;;2.20;;
1446;SDS011;717;51.522;7.266;2023-01-10T10:52:30;13.60;;;3.35;;
1446;SDS011;717;51.522;7.266;2023-01-10T10:55:02;11.93;;;2.22;;
1446;SDS011;717;51.522;7.266;2023-01-10T10:57:33;14.50;;;2.55;;
1446;SDS011;717;51.522;7.266;2023-01-10T11:00:06;12.90;;;2.63;;
1446;SDS011;717;51.522;7.266;2023-01-10T11:02:42;10.70;;;2.42;;
1446;SDS011;717;51.522;7.266;2023-01-10T11:05:15;10.50;;;2.58;;
1446;SDS011;717;51.522;7.266;2023-01-10T11:07:58;11.82;;;2.85;;
1446;SDS011;717;51.522;7.266;2023-01-10T11:10:30;12.30;;;2.43;;
1446;SDS011;717;51.522;7.266;2023-01-10T11:13:05;12.02;;;2.70;;
1446;SDS011;717;51.522;7.266;2023-01-10T11:15:43;15.07;;;2.88;;
1446;SDS011;717;51.522;7.266;2023-01-10T11:18:14;18.48;;;2.67;;
1446;SDS011;717;51.522;7.266;2023-01-10T11:20:48;11.52;;;2.65;;
1446;SDS011;717;51.522;7.266;2023-01-10T11:23:27;19.50;;;3.30;;
1446;SDS011;717;51.522;7.266;2023-01-10T11:26:20;11.02;;;2.53;;
1446;SDS011;717;51.522;7.266;2023-01-10T11:28:52;13.90;;;3.05;;
1446;SDS011;717;51.522;7.266;2023-01-10T11:31:32;11.02;;;2.28;;
1446;SDS011;717;51.522;7.266;2023-01-10T11:34:04;13.85;;;2.90;;
1446;SDS011;717;51.522;7.266;2023-01-10T11:36:53;16.17;;;2.38;;
1446;SDS011;717;51.522;7.266;2023-01-10T11:39:26;12.43;;;3.53;;
1446;SDS011;717;51.522;7.266;2023-01-10T11:41:56;10.07;;;2.30;;
1446;SDS011;717;51.522;7.266;2023-01-10T11:44:45;10.73;;;2.47;;
1446;SDS011;717;51.522;7.266;2023-01-10T11:47:13;11.45;;;3.55;;
1446;SDS011;717;51.522;7.266;2023-01-10T11:49:45;11.00;;;2.30;;
1446;SDS011;717;51.522;7.266;2023-01-10T11:52:17;9.00;;;2.17;;
1446;SDS011;717;51.522;7.266;2023-01-10T11:54:52;13.05;;;2.63;;
1446;SDS011;717;51.522;7.266;2023-01-10T11:57:24;10.75;;;2.65;;
1446;SDS011;717;51.522;7.266;2023-01-10T11:59:55;11.13;;;2.10;;
1446;SDS011;717;51.522;7.266;2023-01-10T12:02:29;9.80;;;2.47;;
1446;SDS011;717;51.522;7.266;2023-01-10T12:05:02;9.98;;;2.10;;
1446;SDS011;717;51.522;7.266;2023-01-10T12:10:33;10.68;;;2.20;;
1446;SDS011;717;51.522;7.266;2023-01-10T12:13:07;9.85;;;2.63;;
1446;SDS011;717;51.522;7.266;2023-01-10T12:15:42;14.18;;;2.80;;
1446;SDS011;717;51.522;7.266;2023-01-10T12:18:13;11.40;;;2.60;;
1446;SDS011;717;51.522;7.266;2023-01-10T12:20:45;8.40;;;1.92;;
1446;SDS011;717;51.522;7.266;2023-01-10T12:23:16;9.10;;;1.65;;
1446;SDS011;717;51.522;7.266;2023-01-10T12:25:50;10.27;;;1.90;;
1446;SDS011;717;51.522;7.266;2023-01-10T12:28:22;14.85;;;2.00;;
1446;SDS011;717;51.522;7.266;2023-01-10T12:30:55;7.43;;;2.30;;
1446;SDS011;717;51.522;7.266;2023-01-10T12:33:26;9.30;;;2.17;;
1446;SDS011;717;51.522;7.266;2023-01-10T12:35:57;12.65;;;2.38;;
1446;SDS011;717;51.522;7.266;2023-01-10T12:38:32;11.32;;;2.03;;
1446;SDS011;717;51.522;7.266;2023-01-10T12:41:22;9.40;;;2.40;;
1446;SDS011;717;51.522;7.266;2023-01-10T12:44:11;9.77;;;2.22;;
1446;SDS011;717;51.522;7.266;2023-01-10T12:46:44;13.73;;;2.30;;
1446;SDS011;717;51.522;7.266;2023-01-10T12:49:17;13.50;;;2.22;;
1446;SDS011;717;51.522;7.266;2023-01-10T12:51:50;16.55;;;3.05;;
1446;SDS011;717;51.522;7.266;2023-01-10T12:54:21;14.10;;;2.70;;
1446;SDS011;717;51.522;7.266;2023-01-10T12:56:54;10.65;;;2.00;;
1446;SDS011;717;51.522;7.266;2023-01-10T12:59:27;9.27;;;2.20;;
1446;SDS011;717;51.522;7.266;2023-01-10T13:02:01;10.82;;;2.00;;
1446;SDS011;717;51.522;7.266;2023-01-10T13:04:33;15.18;;;2.55;;
1446;SDS011;717;51.522;7.266;2023-01-10T13:07:05;11.10;;;2.35;;
1446;SDS011;717;51.522;7.266;2023-01-10T13:09:38;11.35;;;2.35;;
1446;SDS011;717;51.522;7.266;2023-01-10T13:12:12;11.95;;;2.58;;
1446;SDS011;717;51.522;7.266;2023-01-10T13:14:48;12.20;;;2.20;;
1446;SDS011;717;51.522;7.266;2023-01-10T13:17:25;10.20;;;1.83;;
1446;SDS011;717;51.522;7.266;2023-01-10T13:23:20;11.52;;;1.67;;
1446;SDS011;717;51.522;7.266;2023-01-10T13:25:55;6.13;;;1.77;;
1446;SDS011;717;51.522;7.266;2023-01-10T13:28:29;9.25;;;2.25;;
1446;SDS011;717;51.522;7.266;2023-01-10T13:31:00;12.23;;;2.03;;
1446;SDS011;717;51.522;7.266;2023-01-10T13:33:32;10.95;;;2.05;;
1446;SDS011;717;51.522;7.266;2023-01-10T13:36:18;10.90;;;1.70;;
1446;SDS011;717;51.522;7.266;2023-01-10T13:38:50;6.93;;;1.90;;
1446;SDS011;717;51.522;7.266;2023-01-10T13:41:21;9.15;;;1.90;;
1446;SDS011;717;51.522;7.266;2023-01-10T13:44:10;8.98;;;1.90;;
1446;SDS011;717;51.522;7.266;2023-01-10T13:46:41;9.27;;;2.33;;
1446;SDS011;717;51.522;7.266;2023-01-10T13:57:52;9.05;;;1.70;;
1446;SDS011;717;51.522;7.266;2023-01-10T14:03:44;8.40;;;2.10;;
1446;SDS011;717;51.522;7.266;2023-01-10T14:06:18;8.52;;;1.73;;
1446;SDS011;717;51.522;7.266;2023-01-10T14:12:04;7.60;;;1.63;;
1446;SDS011;717;51.522;7.266;2023-01-10T14:14:43;10.13;;;2.20;;
1446;SDS011;717;51.522;7.266;2023-01-10T14:17:24;12.13;;;1.88;;
1446;SDS011;717;51.522;7.266;2023-01-10T14:19:59;11.40;;;1.87;;
1446;SDS011;717;51.522;7.266;2023-01-10T14:22:32;8.38;;;1.77;;
1446;SDS011;717;51.522;7.266;2023-01-10T14:25:04;5.80;;;1.45;;
1446;SDS011;717;51.522;7.266;2023-01-10T14:27:42;9.27;;;1.38;;
1446;SDS011;717;51.522;7.266;2023-01-10T14:30:15;9.07;;;1.67;;
1446;SDS011;717;51.522;7.266;2023-01-10T14:32:49;11.52;;;2.30;;
1446;SDS011;717;51.522;7.266;2023-01-10T14:35:21;10.05;;;1.45;;
1446;SDS011;717;51.522;7.266;2023-01-10T14:37:53;9.68;;;1.80;;
1446;SDS011;717;51.522;7.266;2023-01-10T14:40:25;6.05;;;1.63;;
1446;SDS011;717;51.522;7.266;2023-01-10T14:42:56;6.47;;;1.20;;
1446;SDS011;717;51.522;7.266;2023-01-10T14:45:29;6.47;;;1.27;;
1446;SDS011;717;51.522;7.266;2023-01-10T14:48:24;7.13;;;1.92;;
1446;SDS011;717;51.522;7.266;2023-01-10T14:51:07;6.63;;;1.70;;
1446;SDS011;717;51.522;7.266;2023-01-10T14:53:37;9.25;;;1.40;;
1446;SDS011;717;51.522;7.266;2023-01-10T14:56:15;9.23;;;1.73;;
1446;SDS011;717;51.522;7.266;2023-01-10T14:58:48;9.88;;;1.73;;
1446;SDS011;717;51.522;7.266;2023-01-10T15:01:19;8.35;;;1.40;;
1446;SDS011;717;51.522;7.266;2023-01-10T15:03:53;6.50;;;1.48;;
1446;SDS011;717;51.522;7.266;2023-01-10T15:06:26;5.47;;;1.50;;
1446;SDS011;717;51.522;7.266;2023-01-10T15:08:56;7.60;;;1.77;;
1446;SDS011;717;51.522;7.266;2023-01-10T15:11:27;7.38;;;1.42;;
1446;SDS011;717;51.522;7.266;2023-01-10T15:13:59;10.27;;;1.70;;
1446;SDS011;717;51.522;7.266;2023-01-10T15:16:32;4.93;;;1.38;;
1446;SDS011;717;51.522;7.266;2023-01-10T15:19:08;9.10;;;1.70;;
1446;SDS011;717;51.522;7.266;2023-01-10T15:21:40;7.83;;;1.40;;
1446;SDS011;717;51.522;7.266;2023-01-10T15:24:23;7.60;;;1.33;;
1446;SDS011;717;51.522;7.266;2023-01-10T15:26:57;9.70;;;1.87;;
1446;SDS011;717;51.522;7.266;2023-01-10T15:29:27;7.90;;;1.40;;
1446;SDS011;717;51.522;7.266;2023-01-10T15:32:00;11.48;;;2.15;;
1446;SDS011;717;51.522;7.266;2023-01-10T15:34:37;7.30;;;1.60;;
1446;SDS011;717;51.522;7.266;2023-01-10T15:37:11;10.97;;;1.87;;
1446;SDS011;717;51.522;7.266;2023-01-10T15:39:45;7.70;;;1.63;;
1446;SDS011;717;51.522;7.266;2023-01-10T15:42:14;6.05;;;1.40;;
1446;SDS011;717;51.522;7.266;2023-01-10T15:44:47;12.55;;;2.10;;
1446;SDS011;717;51.522;7.266;2023-01-10T15:47:35;8.97;;;2.00;;
1446;SDS011;717;51.522;7.266;2023-01-10T15:50:19;7.07;;;1.65;;
1446;SDS011;717;51.522;7.266;2023-01-10T15:52:51;5.10;;;1.40;;
1446;SDS011;717;51.522;7.266;2023-01-10T15:55:34;7.68;;;1.70;;
1446;SDS011;717;51.522;7.266;2023-01-10T15:58:04;5.15;;;1.42;;
1446;SDS011;717;51.522;7.266;2023-01-10T16:00:41;10.27;;;1.98;;
1446;SDS011;717;51.522;7.266;2023-01-10T16:03:12;6.97;;;1.60;;
1446;SDS011;717;51.522;7.266;2023-01-10T16:05:51;9.60;;;1.60;;
1446;SDS011;717;51.522;7.266;2023-01-10T16:08:23;6.57;;;1.77;;
1446;SDS011;717;51.522;7.266;2023-01-10T16:10:54;5.75;;;1.42;;
1446;SDS011;717;51.522;7.266;2023-01-10T16:13:25;8.55;;;1.95;;
1446;SDS011;717;51.522;7.266;2023-01-10T16:15:52;8.55;;;1.55;;
1446;SDS011;717;51.522;7.266;2023-01-10T16:18:21;6.05;;;1.77;;
1446;SDS011;717;51.522;7.266;2023-01-10T16:20:54;8.77;;;1.63;;
1446;SDS011;717;51.522;7.266;2023-01-10T16:23:24;10.05;;;2.15;;
1446;SDS011;717;51.522;7.266;2023-01-10T16:25:56;9.93;;;2.00;;
1446;SDS011;717;51.522;7.266;2023-01-10T16:28:26;7.23;;;1.70;;